Terminal Aerodrome Forecast
Issued by NWS Flagstaff, AZ

Home | Current Version | Previous Version | Text Only | Print | Product List | Glossary On
Versions: 1 2 3 4 5 6 7 8 9 10 11 12 13 14 15 16 17 18 19 20 21 22 23
306
FTUS45 KFGZ 211136
TAFFLG
TAF
KFLG 211136Z 2112/2212 VRB03KT P6SM VCSH FEW050 BKN070
     FM211600 23006KT P6SM FEW060 SCT080
      TEMPO 2119/2123 VRB10G20KT 5SM TSRA BKN040CB
     FM212300 VRB05KT P6SM BKN060 OVC080=

USA.gov is the U.S. government's official web portal to all federal, state and local government web resources and services.